PST,Max TemperatureF,Mean TemperatureF,Min TemperatureF,Max Dew PointF,MeanDew PointF,Min DewpointF,Max Humidity, Mean Humidity, Min Humidity, Max Sea Level PressureIn, Mean Sea Level PressureIn, Min Sea Level PressureIn, Max VisibilityMiles, Mean VisibilityMiles, Min VisibilityMiles, Max Wind SpeedMPH, Mean Wind SpeedMPH, Max Gust SpeedMPH,PrecipitationIn, CloudCover, Events, WindDirDegrees
2013-1-1,33,30,26,28,24,20,100,85,59,30.40,30.29,30.21,10,6,0,22,9,31,0.00,1,Fog,123
2013-1-2,39,34,30,23,21,18,66,58,49,30.27,30.20,30.13,10,10,9,25,19,36,0.00,0,,121
2013-1-3,36,34,32,34,28,17,100,82,52,30.29,30.17,30.08,10,9,1,18,15,30,0.00,6,,174
2013-1-4,41,38,34,32,27,24,92,68,55,30.31,30.23,30.15,10,10,10,13,10,,0.00,0,,145
2013-1-5,37,34,30,31,29,25,96,81,62,30.17,30.14,30.09,10,9,2,13,9,16,0.00,5,,145
2013-1-6,36,33,30,32,30,28,100,94,81,30.23,30.15,30.08,10,5,0,14,6,,0.00,6,Fog-Rain,139
2013-1-7,39,36,32,39,35,30,100,97,93,30.29,30.23,30.13,0,0,0,16,12,25,0.00,8,Fog-Rain,210
2013-1-8,43,39,35,37,36,34,100,91,76,30.31,30.21,30.03,10,6,0,17,9,,0.00,4,Fog,189
2013-1-9,43,34,24,36,29,24,100,95,65,29.99,29.91,29.85,10,3,0,24,11,36,0.02,7,Fog-Rain-Snow,214
2013-1-10,28,26,24,27,24,21,100,94,86,30.17,30.01,29.90,9,2,0,8,2,,0.17,8,Fog-Snow,329
2013-1-11,28,24,19,27,23,15,100,92,81,30.26,30.10,30.03,10,3,0,8,3,,0.00,7,Fog-Rain-Snow,355
2013-1-12,24,20,17,21,18,11,96,88,68,30.31,30.19,30.11,10,3,0,13,3,,0.00,4,Fog,97
2013-1-13,25,21,17,20,17,12,93,86,60,30.41,30.27,30.16,10,3,0,10,2,,0.00,3,Fog,97
2013-1-14,32,26,21,20,14,9,72,57,40,30.50,30.47,30.41,10,10,10,14,9,,0.00,0,,93
2013-1-15,54,42,30,23,18,10,56,39,23,30.56,30.52,30.47,10,10,10,12,7,,0.00,0,,102
2013-1-16,53,50,46,16,10,4,26,20,15,30.51,30.43,30.36,10,10,10,15,9,,0.00,0,,105
2013-1-17,54,50,45,15,12,9,26,22,18,30.36,30.28,30.22,10,10,10,15,12,23,0.00,0,,107
2013-1-18,51,47,43,14,12,10,28,24,21,30.24,30.21,30.19,10,10,10,17,13,24,0.00,0,,113
2013-1-19,52,46,39,15,11,6,38,25,16,30.27,30.24,30.21,10,10,10,20,14,29,0.00,0,,117
2013-1-20,51,45,39,12,10,8,29,25,18,30.25,30.22,30.19,10,10,10,21,16,29,0.00,0,,122
2013-1-21,54,48,41,15,11,8,29,23,17,30.19,30.14,30.08,10,10,10,21,14,30,0.00,0,,137
2013-1-22,51,46,42,16,14,10,32,27,22,30.06,29.98,29.88,10,10,10,20,11,23,0.00,0,,140
2013-1-23,48,42,35,40,34,9,100,85,21,30.11,29.94,29.81,10,2,0,18,12,28,1.00,8,Fog-Rain,169
2013-1-24,44,40,37,41,38,37,100,96,82,30.18,30.13,30.08,10,3,0,15,8,21,0.08,7,Fog-Rain,176
2013-1-25,41,37,32,41,38,31,100,97,93,30.13,30.03,29.96,10,1,0,17,12,24,0.39,8,Fog-Rain,193
2013-1-26,33,30,28,32,29,27,100,95,78,30.12,29.98,29.93,10,3,0,15,8,23,0.01,8,Fog-Rain-Snow,221
2013-1-27,30,28,26,29,28,27,100,94,92,30.21,30.10,30.02,10,2,0,13,1,18,0.15,8,Fog-Snow,227
2013-1-28,34,32,30,31,29,27,100,93,85,30.33,30.21,30.05,2,1,0,9,4,18,0.12,8,Fog-Snow,323
2013-1-29,35,34,32,34,32,30,100,92,81,30.51,30.42,30.24,10,2,0,7,4,,0.01,7,Fog,41
2013-1-30,36,33,30,36,32,28,100,94,87,30.56,30.46,30.36,10,4,0,7,3,,0.00,4,Fog,54
2013-1-31,39,34,30,36,32,28,100,93,73,30.43,30.32,30.27,10,2,0,15,5,,0.00,4,Fog,56